createdAt,value
2019-04-07T00:00:23.457Z,9.90
2019-04-07T00:01:27.604Z,10.03
2019-04-07T00:02:30.422Z,9.93
2019-04-07T00:03:33.316Z,9.08
2019-04-07T00:04:36.320Z,9.83
2019-04-07T00:05:39.795Z,9.73
2019-04-07T00:06:45.323Z,9.03
2019-04-07T00:07:48.582Z,9.23
2019-04-07T00:08:51.528Z,9.60
2019-04-07T00:09:54.690Z,10.05
2019-04-07T00:10:57.975Z,9.13
2019-04-07T00:12:01.932Z,9.18
2019-04-07T00:13:05.256Z,8.70
2019-04-07T00:14:10.413Z,10.15
2019-04-07T00:15:14.526Z,8.40
2019-04-07T00:16:19.062Z,10.35
2019-04-07T00:17:22.251Z,10.68
2019-04-07T00:18:25.819Z,10.00
2019-04-07T00:19:29.473Z,9.60
2019-04-07T00:20:32.514Z,9.13
2019-04-07T00:21:36.406Z,10.10
2019-04-07T00:22:40.620Z,9.80
2019-04-07T00:23:44.117Z,8.65
2019-04-07T00:24:47.123Z,9.33
2019-04-07T00:25:51.408Z,9.20
2019-04-07T00:26:55.255Z,9.15
2019-04-07T00:27:58.821Z,10.25
2019-04-07T00:29:01.921Z,8.85
2019-04-07T00:30:05.339Z,9.15
2019-04-07T00:31:08.795Z,9.58
2019-04-07T00:32:11.830Z,9.08
2019-04-07T00:33:15.168Z,9.13
2019-04-07T00:34:18.512Z,9.70
2019-04-07T00:35:30.966Z,9.28
2019-04-07T00:36:29.386Z,8.85
2019-04-07T00:37:34.227Z,10.10
2019-04-07T00:38:37.305Z,8.78
2019-04-07T00:39:43.477Z,8.75
2019-04-07T00:40:47.393Z,8.13
2019-04-07T00:41:51.871Z,8.63
2019-04-07T00:42:55.515Z,8.78
2019-04-07T00:43:59.451Z,8.78
2019-04-07T00:45:03.672Z,9.13
2019-04-07T00:46:08.787Z,10.08
2019-04-07T00:47:12.928Z,9.83
2019-04-07T00:48:16.858Z,9.08
2019-04-07T00:49:21.249Z,9.40
2019-04-07T00:50:27.155Z,9.13
2019-04-07T00:51:31.033Z,8.98
2019-04-07T00:52:36.077Z,9.33
2019-04-07T00:53:40.844Z,10.30
2019-04-07T00:54:45.895Z,8.50
2019-04-07T00:55:49.663Z,9.50
2019-04-07T00:56:52.799Z,8.55
2019-04-07T00:57:58.345Z,10.25
2019-04-07T00:59:02.674Z,8.93
2019-04-07T01:00:09.561Z,8.63
2019-04-07T01:01:16.428Z,9.20
2019-04-07T01:02:21.245Z,9.78
2019-04-07T01:03:25.018Z,8.13
2019-04-07T01:04:31.817Z,8.70
2019-04-07T01:05:38.500Z,8.45
2019-04-07T01:06:40.693Z,8.40
2019-04-07T01:07:43.837Z,9.18
2019-04-07T01:08:47.068Z,8.83
2019-04-07T01:09:50.766Z,8.95
2019-04-07T01:10:53.985Z,8.45
2019-04-07T01:11:59.510Z,8.30
2019-04-07T01:13:03.071Z,9.35
2019-04-07T01:14:07.026Z,7.97
2019-04-07T01:15:10.899Z,8.08
2019-04-07T01:16:14.650Z,7.70
2019-04-07T01:17:19.714Z,8.60
2019-04-07T01:18:23.166Z,7.87
2019-04-07T01:19:26.619Z,7.83
2019-04-07T01:20:30.584Z,7.72
2019-04-07T01:21:34.601Z,7.75
2019-04-07T01:22:38.207Z,7.05
2019-04-07T01:23:41.507Z,7.60
2019-04-07T01:24:45.222Z,7.67
2019-04-07T01:25:48.750Z,8.23
2019-04-07T01:26:51.754Z,7.70
2019-04-07T01:27:55.474Z,7.65
2019-04-07T01:28:59.254Z,8.45
2019-04-07T01:30:02.916Z,7.95
2019-04-07T01:31:07.251Z,8.60
2019-04-07T01:32:11.852Z,8.63
2019-04-07T01:33:15.332Z,8.08
2019-04-07T01:34:19.658Z,7.55
2019-04-07T01:35:23.857Z,7.22
2019-04-07T01:36:27.139Z,7.35
2019-04-07T01:37:30.704Z,7.65
2019-04-07T01:38:33.902Z,7.60
2019-04-07T01:39:38.282Z,7.83
2019-04-07T01:40:43.209Z,8.45
2019-04-07T01:42:14.768Z,6.80
2019-04-07T01:43:33.867Z,5.90
2019-04-07T01:44:59.289Z,6.50
2019-04-07T01:46:14.183Z,6.78
2019-04-07T01:47:23.100Z,6.85
2019-04-07T01:48:48.816Z,6.65
2019-04-07T01:50:11.143Z,7.15
2019-04-07T01:51:40.150Z,7.15
2019-04-07T01:53:11.358Z,6.45
2019-04-07T01:54:49.399Z,7.03
2019-04-07T01:56:04.114Z,6.62
2019-04-07T01:57:18.352Z,6.97
2019-04-07T01:58:36.984Z,6.22
2019-04-07T02:00:12.610Z,7.45
2019-04-07T02:01:36.283Z,6.20
2019-04-07T02:03:02.158Z,5.53
2019-04-07T02:04:13.850Z,6.42
2019-04-07T02:05:58.584Z,6.95
2019-04-07T02:07:14.520Z,6.50
2019-04-07T02:08:55.774Z,7.22
2019-04-07T02:10:18.841Z,6.15
2019-04-07T02:11:51.364Z,7.10
2019-04-07T02:13:13.733Z,6.53
2019-04-07T02:14:41.983Z,6.83
2019-04-07T02:16:04.895Z,6.95
2019-04-07T02:17:16.147Z,6.10
2019-04-07T02:18:38.861Z,5.87
2019-04-07T02:20:01.341Z,6.78
2019-04-07T02:21:27.522Z,6.45
2019-04-07T02:22:59.863Z,6.55
2019-04-07T02:24:23.476Z,7.35
2019-04-07T02:25:46.908Z,6.15
2019-04-07T02:27:07.793Z,5.92
2019-04-07T02:28:43.762Z,6.30
2019-04-07T02:29:54.545Z,6.42
2019-04-07T02:31:13.571Z,6.37
2019-04-07T02:32:35.674Z,6.40
2019-04-07T02:34:11.771Z,6.42
2019-04-07T02:35:44.954Z,7.40
2019-04-07T02:37:20.586Z,7.60
2019-04-07T02:38:31.916Z,6.65
2019-04-07T02:39:52.121Z,6.58
2019-04-07T02:41:30.598Z,6.87
2019-04-07T02:43:03.099Z,7.40
2019-04-07T02:44:31.496Z,6.33
2019-04-07T02:45:57.854Z,7.12
2019-04-07T02:47:26.320Z,7.12
2019-04-07T02:48:56.242Z,7.12
2019-04-07T02:50:15.533Z,6.80
2019-04-07T02:51:29.725Z,7.08
2019-04-07T02:52:43.962Z,7.42
2019-04-07T02:54:06.579Z,7.90
2019-04-07T02:55:48.657Z,7.05
2019-04-07T02:56:58.409Z,6.33
2019-04-07T02:58:21.564Z,7.40
2019-04-07T02:59:53.727Z,7.22
2019-04-07T03:01:18.040Z,7.00
2019-04-07T03:02:43.982Z,7.30
2019-04-07T03:04:03.197Z,7.70
2019-04-07T03:05:33.104Z,6.58
2019-04-07T03:06:58.791Z,6.60
2019-04-07T03:08:25.133Z,6.62
2019-04-07T03:10:03.286Z,7.20
2019-04-07T03:11:21.241Z,7.17
2019-04-07T03:12:43.444Z,6.72
2019-04-07T03:13:54.675Z,7.05
2019-04-07T03:15:23.177Z,7.55
2019-04-07T03:16:57.939Z,7.25
2019-04-07T03:18:19.983Z,7.03
2019-04-07T03:19:54.461Z,7.33
2019-04-07T03:21:20.176Z,6.60
2019-04-07T03:22:45.845Z,6.42
2019-04-07T03:24:19.341Z,6.67
2019-04-07T03:25:46.503Z,7.17
2019-04-07T03:27:15.582Z,6.60
2019-04-07T03:28:30.454Z,6.80
2019-04-07T03:30:13.367Z,6.58
2019-04-07T03:31:32.155Z,6.67
2019-04-07T03:32:54.907Z,7.20
2019-04-07T03:34:23.301Z,7.37
2019-04-07T03:35:41.050Z,7.60
2019-04-07T03:37:23.906Z,6.20
2019-04-07T03:38:37.380Z,6.55
2019-04-07T03:40:00.919Z,7.00
2019-04-07T03:41:24.601Z,6.83
2019-04-07T03:42:50.998Z,7.25
2019-04-07T03:44:12.849Z,7.08
2019-04-07T03:45:35.821Z,7.03
2019-04-07T03:46:59.646Z,6.62
2019-04-07T03:48:10.588Z,6.45
2019-04-07T03:49:25.465Z,7.30
2019-04-07T03:50:36.726Z,6.75
2019-04-07T03:52:09.920Z,7.67
2019-04-07T03:53:30.891Z,6.50
2019-04-07T03:54:54.838Z,6.30
2019-04-07T03:56:13.471Z,6.75
2019-04-07T03:57:47.964Z,7.28
2019-04-07T03:59:03.520Z,7.37
2019-04-07T04:00:20.930Z,7.53
2019-04-07T04:01:41.817Z,8.03
2019-04-07T04:03:00.329Z,7.05
2019-04-07T04:04:17.590Z,6.25
2019-04-07T04:05:30.472Z,7.10
2019-04-07T04:06:51.602Z,7.65
2019-04-07T04:08:00.918Z,7.03
2019-04-07T04:09:11.487Z,7.33
2019-04-07T04:12:03.106Z,6.42
2019-04-07T04:13:23.087Z,6.92
2019-04-07T04:14:30.131Z,7.83
2019-04-07T04:15:41.306Z,6.85
2019-04-07T04:16:49.035Z,7.55
2019-04-07T04:17:51.845Z,7.90
2019-04-07T04:18:54.444Z,8.18
2019-04-07T04:19:57.357Z,8.53
2019-04-07T04:21:01.413Z,8.18
2019-04-07T04:22:04.216Z,8.25
2019-04-07T04:23:06.752Z,8.13
2019-04-07T04:24:09.424Z,7.33
2019-04-07T04:25:12.637Z,8.10
2019-04-07T04:26:15.457Z,8.18
2019-04-07T04:27:18.511Z,7.78
2019-04-07T04:28:21.877Z,7.37
2019-04-07T04:29:24.919Z,8.43
2019-04-07T04:30:27.728Z,7.78
2019-04-07T04:31:30.978Z,8.10
2019-04-07T04:32:34.005Z,7.78
2019-04-07T04:33:37.643Z,8.90
2019-04-07T04:34:41.019Z,8.38
2019-04-07T04:35:44.281Z,8.18
2019-04-07T04:36:47.985Z,7.70
2019-04-07T04:37:53.436Z,8.03
2019-04-07T04:38:55.555Z,8.00
2019-04-07T04:39:59.505Z,7.85
2019-04-07T04:41:05.337Z,8.38
2019-04-07T04:42:08.448Z,6.58
2019-04-07T04:43:13.637Z,8.13
2019-04-07T04:44:16.688Z,8.50
2019-04-07T04:45:19.399Z,8.48
2019-04-07T04:46:21.950Z,7.92
2019-04-07T04:47:25.541Z,8.53
2019-04-07T04:48:30.070Z,7.92
2019-04-07T04:49:32.582Z,7.80
2019-04-07T04:50:35.503Z,7.95
2019-04-07T04:51:39.542Z,8.63
2019-04-07T04:52:42.926Z,7.78
2019-04-07T04:53:45.939Z,7.92
2019-04-07T04:54:48.447Z,7.55
2019-04-07T04:55:51.503Z,7.67
2019-04-07T04:56:54.196Z,8.60
2019-04-07T04:57:57.774Z,8.63
2019-04-07T04:59:00.439Z,7.17
2019-04-07T05:00:04.205Z,8.65
2019-04-07T05:01:07.642Z,9.10
2019-04-07T05:02:10.772Z,7.60
2019-04-07T05:03:13.843Z,8.18
2019-04-07T05:04:17.439Z,7.87
2019-04-07T05:05:21.179Z,8.33
2019-04-07T05:06:26.500Z,8.38
2019-04-07T05:07:30.043Z,7.42
2019-04-07T05:08:32.954Z,6.92
2019-04-07T05:09:44.513Z,7.85
2019-04-07T05:10:40.553Z,8.10
2019-04-07T05:11:43.386Z,7.95
2019-04-07T05:12:46.219Z,8.30
2019-04-07T05:13:50.561Z,8.28
2019-04-07T05:14:54.789Z,8.10
2019-04-07T05:15:58.192Z,8.88
2019-04-07T05:17:00.803Z,8.70
2019-04-07T05:18:04.217Z,8.08
2019-04-07T05:19:07.017Z,7.97
2019-04-07T05:20:10.886Z,7.33
2019-04-07T05:21:13.686Z,7.65
2019-04-07T05:22:16.711Z,8.25
2019-04-07T05:23:20.579Z,8.30
2019-04-07T05:24:23.413Z,8.20
2019-04-07T05:25:26.183Z,7.50
2019-04-07T05:26:29.155Z,7.60
2019-04-07T05:27:31.863Z,7.55
2019-04-07T05:28:36.876Z,7.95
2019-04-07T05:29:39.147Z,7.42
2019-04-07T05:30:41.694Z,6.90
2019-04-07T05:31:44.814Z,7.20
2019-04-07T05:32:47.852Z,8.30
2019-04-07T05:33:51.022Z,8.08
2019-04-07T05:34:53.827Z,7.53
2019-04-07T05:35:56.378Z,8.43
2019-04-07T05:36:58.906Z,7.47
2019-04-07T05:38:04.809Z,7.22
2019-04-07T05:39:07.478Z,7.62
2019-04-07T05:40:10.324Z,7.53
2019-04-07T05:41:13.052Z,7.75
2019-04-07T05:42:15.979Z,7.90
2019-04-07T05:43:20.305Z,8.00
2019-04-07T05:44:23.220Z,7.62
2019-04-07T05:45:25.968Z,8.30
2019-04-07T05:46:28.553Z,7.75
2019-04-07T05:47:31.486Z,8.15
2019-04-07T05:48:37.060Z,7.53
2019-04-07T05:49:39.983Z,6.92
2019-04-07T05:50:42.548Z,7.28
2019-04-07T05:51:45.077Z,8.18
2019-04-07T05:52:47.705Z,7.75
2019-04-07T05:53:50.600Z,7.78
2019-04-07T05:54:53.405Z,7.35
2019-04-07T05:55:56.343Z,7.60
2019-04-07T05:57:01.242Z,8.13
2019-04-07T05:58:06.495Z,7.37
2019-04-07T05:59:09.918Z,7.15
2019-04-07T06:00:16.238Z,7.78
2019-04-07T06:01:21.728Z,7.50
2019-04-07T06:02:23.258Z,8.10
2019-04-07T06:03:26.374Z,7.58
2019-04-07T06:04:29.272Z,7.83
2019-04-07T06:05:33.423Z,8.03
2019-04-07T06:06:37.031Z,7.70
2019-04-07T06:07:41.481Z,7.78
2019-04-07T06:08:47.039Z,8.45
2019-04-07T06:09:51.258Z,8.28
2019-04-07T06:10:57.540Z,8.05
2019-04-07T06:11:57.976Z,7.10
2019-04-07T06:13:01.265Z,8.35
2019-04-07T06:14:04.210Z,8.03
2019-04-07T06:15:09.615Z,7.70
2019-04-07T06:16:12.957Z,8.00
2019-04-07T06:17:16.892Z,8.23
2019-04-07T06:18:19.518Z,8.25
2019-04-07T06:19:25.989Z,6.87
2019-04-07T06:20:29.006Z,8.80
2019-04-07T06:21:32.374Z,7.00
2019-04-07T06:22:35.050Z,8.10
2019-04-07T06:23:37.700Z,7.78
2019-04-07T06:24:40.658Z,8.00
2019-04-07T06:25:46.157Z,7.87
2019-04-07T06:26:50.284Z,8.90
2019-04-07T06:27:53.287Z,8.03
2019-04-07T06:28:58.431Z,8.25
2019-04-07T06:30:00.976Z,8.63
2019-04-07T06:31:04.732Z,7.67
2019-04-07T06:32:10.092Z,7.40
2019-04-07T06:33:13.387Z,8.88
2019-04-07T06:34:17.250Z,8.83
2019-04-07T06:35:20.088Z,8.48
2019-04-07T06:36:26.145Z,8.30
2019-04-07T06:37:29.456Z,8.43
2019-04-07T06:38:35.769Z,8.65
2019-04-07T06:39:39.019Z,7.22
2019-04-07T06:40:41.635Z,7.78
2019-04-07T06:41:44.385Z,8.70
2019-04-07T06:42:47.548Z,8.10
2019-04-07T06:43:50.682Z,9.10
2019-04-07T06:44:54.231Z,8.20
2019-04-07T06:46:26.097Z,8.48
2019-04-07T06:47:37.131Z,6.80
2019-04-07T06:48:59.579Z,6.87
2019-04-07T06:50:17.888Z,7.45
2019-04-07T06:51:34.597Z,7.50
2019-04-07T06:52:56.890Z,6.22
2019-04-07T06:54:31.142Z,6.40
2019-04-07T06:56:11.577Z,5.70
2019-04-07T06:57:46.872Z,5.17
2019-04-07T06:59:15.600Z,5.78
2019-04-07T07:00:46.704Z,6.33
2019-04-07T07:02:02.238Z,6.60
2019-04-07T07:03:33.527Z,6.08
2019-04-07T07:04:54.151Z,5.92
2019-04-07T07:06:31.912Z,5.97
2019-04-07T07:07:54.797Z,5.92
2019-04-07T07:09:16.493Z,5.78
2019-04-07T07:10:44.605Z,5.72
2019-04-07T07:12:18.060Z,6.12
2019-04-07T07:13:35.761Z,6.08
2019-04-07T07:14:58.321Z,5.67
2019-04-07T07:16:33.903Z,6.80
2019-04-07T07:17:51.058Z,5.97
2019-04-07T07:19:20.579Z,5.70
2019-04-07T07:20:41.475Z,6.17
2019-04-07T07:21:50.065Z,6.22
2019-04-07T07:23:00.450Z,6.50
2019-04-07T07:24:02.568Z,5.50
2019-04-07T07:25:05.628Z,6.17
2019-04-07T07:26:08.317Z,6.90
2019-04-07T07:27:12.163Z,6.22
2019-04-07T07:28:18.497Z,6.95
2019-04-07T07:29:22.377Z,6.62
2019-04-07T07:30:25.030Z,6.67
2019-04-07T07:31:28.148Z,6.47
2019-04-07T07:32:34.982Z,6.85
2019-04-07T07:33:38.383Z,6.60
2019-04-07T07:34:42.214Z,6.72
2019-04-07T07:35:48.825Z,6.12
2019-04-07T07:36:53.455Z,5.60
2019-04-07T07:37:58.154Z,5.90
2019-04-07T07:39:02.150Z,6.40
2019-04-07T07:40:07.924Z,6.30
2019-04-07T07:41:10.919Z,5.95
2019-04-07T07:42:13.768Z,6.70
2019-04-07T07:43:16.702Z,6.58
2019-04-07T07:44:20.055Z,5.72
2019-04-07T07:45:22.949Z,6.58
2019-04-07T07:46:25.671Z,6.25
2019-04-07T07:47:29.646Z,6.80
2019-04-07T07:48:32.377Z,6.00
2019-04-07T07:49:39.813Z,6.83
2019-04-07T07:50:40.512Z,6.08
2019-04-07T07:51:46.949Z,5.92
2019-04-07T07:52:51.264Z,5.62
2019-04-07T07:53:52.736Z,6.20
2019-04-07T07:54:59.794Z,6.53
2019-04-07T07:56:00.903Z,5.55
2019-04-07T07:57:03.834Z,6.10
2019-04-07T07:58:07.274Z,6.00
2019-04-07T07:59:09.912Z,6.15
2019-04-07T08:00:12.583Z,6.45
2019-04-07T08:01:15.957Z,5.47
2019-04-07T08:02:19.972Z,6.37
2019-04-07T08:03:23.950Z,6.80
2019-04-07T08:04:27.615Z,6.17
2019-04-07T08:05:33.383Z,6.37
2019-04-07T08:06:38.492Z,6.05
2019-04-07T08:07:44.357Z,6.45
2019-04-07T08:08:46.877Z,6.15
2019-04-07T08:09:49.137Z,6.62
2019-04-07T08:10:56.276Z,6.05
2019-04-07T08:11:56.507Z,5.75
2019-04-07T08:12:59.742Z,5.53
2019-04-07T08:14:03.389Z,6.37
2019-04-07T08:15:07.073Z,5.53
2019-04-07T08:16:10.886Z,6.00
2019-04-07T08:17:13.710Z,6.40
2019-04-07T08:18:19.382Z,6.03
2019-04-07T08:19:21.169Z,5.95
2019-04-07T08:20:27.387Z,6.50
2019-04-07T08:21:30.403Z,5.78
2019-04-07T08:22:40.180Z,6.42
2019-04-07T08:23:38.502Z,6.50
2019-04-07T08:24:43.836Z,6.10
2019-04-07T08:25:47.140Z,5.72
2019-04-07T08:26:50.316Z,6.45
2019-04-07T08:27:53.176Z,6.22
2019-04-07T08:28:56.580Z,5.78
2019-04-07T08:30:01.572Z,6.12
2019-04-07T08:31:04.465Z,5.45
2019-04-07T08:32:07.697Z,5.83
2019-04-07T08:33:10.433Z,5.65
2019-04-07T08:34:13.243Z,5.30
2019-04-07T08:35:16.480Z,5.53
2019-04-07T08:36:19.430Z,5.12
2019-04-07T08:37:23.842Z,5.60
2019-04-07T08:38:28.223Z,5.53
2019-04-07T08:39:34.682Z,5.03
2019-04-07T08:40:36.827Z,5.65
2019-04-07T08:41:41.626Z,5.65
2019-04-07T08:42:48.310Z,5.65
2019-04-07T08:43:54.120Z,5.60
2019-04-07T08:44:57.244Z,5.72
2019-04-07T08:46:02.259Z,5.40
2019-04-07T08:47:04.505Z,5.80
2019-04-07T08:48:07.375Z,5.95
2019-04-07T08:49:10.167Z,5.70
2019-04-07T08:50:13.284Z,5.53
2019-04-07T08:51:16.228Z,5.67
2019-04-07T08:52:19.600Z,5.55
2019-04-07T08:53:22.914Z,5.37
2019-04-07T08:54:26.372Z,5.55
2019-04-07T08:55:29.855Z,5.55
2019-04-07T08:56:32.941Z,5.55
2019-04-07T08:57:35.828Z,4.90
2019-04-07T08:58:40.019Z,5.40
2019-04-07T08:59:43.214Z,5.58
2019-04-07T09:00:50.997Z,5.70
2019-04-07T09:01:54.277Z,5.62
2019-04-07T09:03:03.698Z,4.97
2019-04-07T09:04:04.443Z,5.12
2019-04-07T09:05:07.607Z,5.45
2019-04-07T09:06:10.956Z,4.97
2019-04-07T09:07:14.083Z,5.50
2019-04-07T09:08:17.925Z,5.97
2019-04-07T09:09:32.102Z,5.12
2019-04-07T09:10:34.326Z,5.25
2019-04-07T09:11:39.957Z,5.20
2019-04-07T09:12:42.870Z,6.42
2019-04-07T09:13:50.475Z,5.83
2019-04-07T09:14:53.199Z,5.10
2019-04-07T09:16:18.548Z,5.35
2019-04-07T09:17:41.075Z,5.60
2019-04-07T09:19:03.749Z,5.12
2019-04-07T09:20:34.749Z,5.72
2019-04-07T09:21:47.562Z,5.78
2019-04-07T09:23:08.102Z,6.20
2019-04-07T09:24:19.136Z,5.37
2019-04-07T09:25:47.397Z,5.72
2019-04-07T09:27:06.246Z,5.78
2019-04-07T09:28:26.592Z,5.50
2019-04-07T09:29:47.836Z,5.08
2019-04-07T09:31:08.452Z,5.90
2019-04-07T09:32:20.040Z,5.97
2019-04-07T09:33:42.216Z,5.80
2019-04-07T09:34:56.155Z,5.97
2019-04-07T09:36:22.277Z,5.37
2019-04-07T09:37:31.309Z,5.83
2019-04-07T09:39:02.765Z,5.70
2019-04-07T09:40:27.799Z,5.67
2019-04-07T09:41:52.640Z,6.03
2019-04-07T09:43:12.689Z,6.03
2019-04-07T09:44:37.936Z,6.47
2019-04-07T09:46:09.210Z,6.75
2019-04-07T09:47:48.669Z,6.05
2019-04-07T09:49:08.916Z,6.00
2019-04-07T09:50:29.928Z,6.42
2019-04-07T09:51:55.073Z,6.25
2019-04-07T09:53:29.219Z,6.92
2019-04-07T09:54:47.328Z,6.33
2019-04-07T09:56:13.034Z,6.97
2019-04-07T09:57:21.403Z,6.95
2019-04-07T09:58:50.241Z,6.65
2019-04-07T09:59:59.440Z,7.22
2019-04-07T10:01:27.758Z,6.95
2019-04-07T10:02:47.034Z,7.12
2019-04-07T10:04:01.807Z,7.67
2019-04-07T10:05:27.212Z,6.37
2019-04-07T10:06:49.919Z,6.95
2019-04-07T10:08:02.254Z,7.45
2019-04-07T10:09:17.195Z,6.58
2019-04-07T10:10:38.308Z,6.60
2019-04-07T10:11:56.738Z,6.80
2019-04-07T10:13:07.651Z,6.42
2019-04-07T10:14:30.721Z,6.45
2019-04-07T10:15:51.653Z,6.83
2019-04-07T10:17:16.606Z,6.95
2019-04-07T10:18:44.701Z,7.05
2019-04-07T10:19:57.212Z,7.40
2019-04-07T10:21:25.334Z,7.47
2019-04-07T10:22:50.587Z,7.03
2019-04-07T10:24:18.639Z,6.90
2019-04-07T10:25:48.558Z,7.67
2019-04-07T10:27:10.884Z,7.35
2019-04-07T10:28:43.034Z,7.87
2019-04-07T10:30:05.729Z,7.22
2019-04-07T10:31:23.581Z,6.87
2019-04-07T10:32:50.355Z,7.05
2019-04-07T10:34:13.217Z,7.17
2019-04-07T10:35:21.454Z,7.58
2019-04-07T10:36:42.505Z,7.15
2019-04-07T10:38:07.562Z,6.47
2019-04-07T10:39:21.139Z,6.95
2019-04-07T10:40:40.117Z,6.92
2019-04-07T10:42:18.054Z,7.37
2019-04-07T10:43:39.311Z,6.92
2019-04-07T10:44:50.440Z,6.85
2019-04-07T10:46:14.679Z,7.35
2019-04-07T10:47:36.858Z,7.12
2019-04-07T10:48:49.875Z,7.28
2019-04-07T10:50:17.959Z,7.60
2019-04-07T10:51:43.018Z,6.53
2019-04-07T10:53:03.786Z,6.90
2019-04-07T10:54:23.362Z,6.60
2019-04-07T10:55:39.603Z,6.93
2019-04-07T10:57:05.044Z,6.75
2019-04-07T10:58:27.935Z,6.90
2019-04-07T10:59:53.337Z,6.55
2019-04-07T11:01:15.780Z,7.37
2019-04-07T11:02:36.770Z,6.87
2019-04-07T11:03:53.978Z,7.00
2019-04-07T11:05:08.487Z,7.10
2019-04-07T11:06:46.162Z,6.55
2019-04-07T11:08:20.227Z,6.92
2019-04-07T11:09:41.744Z,6.87
2019-04-07T11:11:13.248Z,7.55
2019-04-07T11:12:30.481Z,7.00
2019-04-07T11:13:51.717Z,6.75
2019-04-07T11:15:04.702Z,6.95
2019-04-07T11:16:13.658Z,6.42
2019-04-07T11:17:29.226Z,6.30
2019-04-07T11:18:40.334Z,6.70
2019-04-07T11:20:01.549Z,6.78
2019-04-07T11:21:30.301Z,7.00
2019-04-07T11:22:57.534Z,6.85
2019-04-07T11:24:16.522Z,6.65
2019-04-07T11:25:38.616Z,6.42
2019-04-07T11:27:01.783Z,5.97
2019-04-07T11:28:24.132Z,5.90
2019-04-07T11:29:49.659Z,6.70
2019-04-07T11:31:21.225Z,6.28
2019-04-07T11:32:44.445Z,6.60
2019-04-07T11:33:52.510Z,5.47
2019-04-07T11:35:29.563Z,6.58
2019-04-07T11:36:41.777Z,6.72
2019-04-07T11:38:05.823Z,6.45
2019-04-07T11:39:36.203Z,6.33
2019-04-07T11:42:30.581Z,6.03
2019-04-07T11:43:43.222Z,6.35
2019-04-07T11:45:04.968Z,6.87
2019-04-07T11:46:27.886Z,6.45
2019-04-07T11:47:49.300Z,5.92
2019-04-07T11:48:57.833Z,6.65
2019-04-07T11:50:09.319Z,6.55
2019-04-07T11:51:34.249Z,6.40
2019-04-07T11:52:49.236Z,6.25
2019-04-07T11:54:26.698Z,6.47
2019-04-07T11:55:52.164Z,6.17
2019-04-07T11:57:23.594Z,5.85
2019-04-07T11:58:51.323Z,5.83
2019-04-07T12:00:20.951Z,5.92
2019-04-07T12:01:34.937Z,6.37
2019-04-07T12:03:07.175Z,5.90
2019-04-07T12:04:38.720Z,6.28
2019-04-07T12:05:53.955Z,6.55
2019-04-07T12:07:31.403Z,6.58
2019-04-07T12:08:53.555Z,6.25
2019-04-07T12:10:24.641Z,7.00
2019-04-07T12:11:36.242Z,5.22
2019-04-07T12:12:54.881Z,6.17
2019-04-07T12:14:09.105Z,6.00
2019-04-07T12:15:45.230Z,5.70
2019-04-07T12:17:22.322Z,6.22
2019-04-07T12:19:00.167Z,5.95
2019-04-07T12:20:19.616Z,5.40
2019-04-07T12:21:39.276Z,5.80
2019-04-07T12:23:03.685Z,6.03
2019-04-07T12:24:28.641Z,6.12
2019-04-07T12:25:44.578Z,6.10
2019-04-07T12:27:05.173Z,6.10
2019-04-07T12:28:33.413Z,5.83
2019-04-07T12:30:05.442Z,5.78
2019-04-07T12:31:24.969Z,5.83
2019-04-07T12:32:50.849Z,5.85
2019-04-07T12:34:12.052Z,4.95
2019-04-07T12:35:51.633Z,6.00
2019-04-07T12:37:17.485Z,6.05
2019-04-07T12:38:36.028Z,5.75
2019-04-07T12:39:50.905Z,6.28
2019-04-07T12:41:15.201Z,6.28
2019-04-07T12:42:33.324Z,5.62
2019-04-07T12:44:08.062Z,5.30
2019-04-07T12:45:29.994Z,5.92
2019-04-07T12:46:44.248Z,7.70
2019-04-07T12:48:03.256Z,6.45
2019-04-07T12:49:20.666Z,5.78
2019-04-07T12:50:42.639Z,6.08
2019-04-07T12:52:20.623Z,6.10
2019-04-07T12:53:49.039Z,5.80
2019-04-07T12:55:04.666Z,5.80
2019-04-07T12:56:18.082Z,5.50
2019-04-07T12:57:35.430Z,5.90
2019-04-07T12:59:04.442Z,6.20
2019-04-07T13:00:23.906Z,5.85
2019-04-07T13:01:48.530Z,5.78
2019-04-07T13:02:57.407Z,6.28
2019-04-07T13:04:32.032Z,7.05
2019-04-07T13:06:00.669Z,6.00
2019-04-07T13:07:19.503Z,5.85
2019-04-07T13:08:49.308Z,5.87
2019-04-07T13:10:09.163Z,5.72
2019-04-07T13:11:39.356Z,5.83
2019-04-07T13:12:59.083Z,5.80
2019-04-07T13:14:23.195Z,6.05
2019-04-07T13:15:48.311Z,6.33
2019-04-07T13:17:01.285Z,6.47
2019-04-07T13:18:31.597Z,5.60
2019-04-07T13:21:15.522Z,6.25
2019-04-07T13:22:43.860Z,6.08
2019-04-07T13:24:12.825Z,5.47
2019-04-07T13:25:32.140Z,6.35
2019-04-07T13:26:43.506Z,6.25
2019-04-07T13:27:56.199Z,5.60
2019-04-07T13:29:24.025Z,6.28
2019-04-07T13:30:37.431Z,5.47
2019-04-07T13:31:53.804Z,5.90
2019-04-07T13:33:26.430Z,5.78
2019-04-07T13:34:43.951Z,5.33
2019-04-07T13:35:56.579Z,5.78
2019-04-07T13:37:22.059Z,6.03
2019-04-07T13:38:44.641Z,5.85
2019-04-07T13:39:56.708Z,5.83
2019-04-07T13:41:36.682Z,5.72
2019-04-07T13:43:06.833Z,5.58
2019-04-07T13:45:25.692Z,5.97
2019-04-07T13:46:48.993Z,6.03
2019-04-07T13:48:11.576Z,6.12
2019-04-07T13:49:33.295Z,7.47
2019-04-07T13:51:02.161Z,7.12
2019-04-07T13:52:17.880Z,7.12
2019-04-07T13:53:52.463Z,7.20
2019-04-07T13:55:13.040Z,6.90
2019-04-07T13:56:52.179Z,7.37
2019-04-07T13:58:10.910Z,6.83
2019-04-07T13:59:32.470Z,7.60
2019-04-07T14:00:58.383Z,7.58
2019-04-07T14:02:19.706Z,7.75
2019-04-07T14:03:51.464Z,7.58
2019-04-07T14:05:14.964Z,7.22
2019-04-07T14:06:43.559Z,6.92
2019-04-07T14:08:07.078Z,8.60
2019-04-07T14:09:32.492Z,7.03
2019-04-07T14:11:01.510Z,7.03
2019-04-07T14:12:30.986Z,7.62
2019-04-07T14:14:06.897Z,8.00
2019-04-07T14:15:19.361Z,7.87
2019-04-07T14:16:34.658Z,7.70
2019-04-07T14:17:56.891Z,7.05
2019-04-07T14:19:12.416Z,7.58
2019-04-07T14:20:22.636Z,7.85
2019-04-07T14:21:40.014Z,8.05
2019-04-07T14:22:55.505Z,7.67
2019-04-07T14:24:07.780Z,7.87
2019-04-07T14:25:49.434Z,7.22
2019-04-07T14:27:12.206Z,8.10
2019-04-07T14:28:30.878Z,7.85
2019-04-07T14:30:03.639Z,8.03
2019-04-07T14:31:25.147Z,8.43
2019-04-07T14:32:38.792Z,7.45
2019-04-07T14:33:58.918Z,8.53
2019-04-07T14:35:24.522Z,8.43
2019-04-07T14:36:42.715Z,7.75
2019-04-07T14:38:05.218Z,7.37
2019-04-07T14:39:18.816Z,8.63
2019-04-07T14:40:46.702Z,7.42
2019-04-07T14:42:09.163Z,7.87
2019-04-07T14:43:27.805Z,7.75
2019-04-07T14:44:45.729Z,8.45
2019-04-07T14:46:10.802Z,7.35
2019-04-07T14:47:42.486Z,7.33
2019-04-07T14:49:04.365Z,7.35
2019-04-07T14:50:26.632Z,8.03
2019-04-07T14:51:47.204Z,7.35
2019-04-07T14:53:17.845Z,8.23
2019-04-07T14:56:07.780Z,7.42
2019-04-07T14:57:17.006Z,8.40
2019-04-07T14:58:39.385Z,7.50
2019-04-07T15:00:02.121Z,7.22
2019-04-07T15:01:28.157Z,7.85
2019-04-07T15:02:30.944Z,9.05
2019-04-07T15:03:33.620Z,8.80
2019-04-07T15:04:41.923Z,8.55
2019-04-07T15:05:46.188Z,8.85
2019-04-07T15:06:59.197Z,8.55
2019-04-07T15:08:10.624Z,8.93
2019-04-07T15:09:30.573Z,8.55
2019-04-07T15:10:40.797Z,8.03
2019-04-07T15:12:16.925Z,7.78
2019-04-07T15:13:17.117Z,8.13
2019-04-07T15:14:21.529Z,8.23
2019-04-07T15:15:24.764Z,8.10
2019-04-07T15:16:27.478Z,7.42
2019-04-07T15:17:30.182Z,7.45
2019-04-07T15:18:32.894Z,7.87
2019-04-07T15:19:36.222Z,7.90
2019-04-07T15:20:40.820Z,8.60
2019-04-07T15:21:44.107Z,8.40
2019-04-07T15:22:48.463Z,7.45
2019-04-07T15:23:51.834Z,8.00
2019-04-07T15:24:54.876Z,7.97
2019-04-07T15:25:57.942Z,7.75
2019-04-07T15:27:00.810Z,8.13
2019-04-07T15:28:04.337Z,7.80
2019-04-07T15:29:10.778Z,8.80
2019-04-07T15:30:15.592Z,7.45
2019-04-07T15:31:19.449Z,7.78
2019-04-07T15:32:27.742Z,7.45
2019-04-07T15:33:30.955Z,8.03
2019-04-07T15:34:32.137Z,7.37
2019-04-07T15:35:35.255Z,8.03
2019-04-07T15:36:38.603Z,8.95
2019-04-07T15:37:41.831Z,7.10
2019-04-07T15:38:44.533Z,8.25
2019-04-07T15:39:47.119Z,7.45
2019-04-07T15:40:50.573Z,7.03
2019-04-07T15:41:53.649Z,7.12
2019-04-07T15:42:56.882Z,7.80
2019-04-07T15:44:00.394Z,7.28
2019-04-07T15:45:04.910Z,8.18
2019-04-07T15:46:09.607Z,7.70
2019-04-07T15:47:12.277Z,7.42
2019-04-07T15:48:15.358Z,8.08
2019-04-07T15:49:18.441Z,7.58
2019-04-07T15:50:21.489Z,8.00
2019-04-07T15:51:24.291Z,7.67
2019-04-07T15:52:27.473Z,7.70
2019-04-07T15:53:30.899Z,7.30
2019-04-07T15:54:33.925Z,7.78
2019-04-07T15:55:47.617Z,7.83
2019-04-07T15:56:45.421Z,8.03
2019-04-07T15:57:48.066Z,6.62
2019-04-07T15:58:51.514Z,7.58
2019-04-07T15:59:54.727Z,6.12
2019-04-07T16:00:57.435Z,7.37
2019-04-07T16:02:01.135Z,7.28
2019-04-07T16:03:04.286Z,7.22
2019-04-07T16:04:07.072Z,7.33
2019-04-07T16:05:11.425Z,7.70
2019-04-07T16:06:16.209Z,6.72
2019-04-07T16:07:20.060Z,7.80
2019-04-07T16:08:26.657Z,7.58
2019-04-07T16:09:34.634Z,6.78
2019-04-07T16:10:32.198Z,7.62
2019-04-07T16:11:34.952Z,6.90
2019-04-07T16:12:45.121Z,6.30
2019-04-07T16:13:42.296Z,7.65
2019-04-07T16:14:46.859Z,6.58
2019-04-07T16:15:53.935Z,6.35
2019-04-07T16:16:59.318Z,6.42
2019-04-07T16:18:04.104Z,7.03
2019-04-07T16:19:05.540Z,6.53
2019-04-07T16:20:19.746Z,6.40